Terminal Aerodrome Forecast
Issued by NWS Mt. Holly, NJ

Home | Current Version | Previous Version | Text Only | Print | Product List | Glossary On
Versions: 1 2 3 4 5 6 7 8 9 10 11 12 13 14 15 16 17 18 19 20 21 22 23 24 25 26
409
FTUS41 KPHI 240106 AAA
TAFABE
TAF AMD
KABE 240106Z 2401/2424 05012G22KT P6SM -RA OVC015
      TEMPO 2403/2406 3SM RAPL BR OVC010
     FM240600 01012G22KT 3SM -RA BR OVC007
     FM241800 34012G22KT P6SM OVC010
     FM242300 32010KT P6SM OVC025=

USA.gov is the U.S. government's official web portal to all federal, state and local government web resources and services.